Warm Lake, Idaho
Current Conditions -  °F | °C
As of 4:51 PM on Friday 21 Nov 2014 (Local Time) from KMYL Reporting Station
Light Snow Light Snow  
Wind Chill: 26°   Ceiling: 3700
Heat Index: 35°   Visibility: 9mi
Dew Point: 32°   Wind: 13mph
Humidity: 89%   Direction: 160°SSE
Pressure: 29.85"   Gusts: NA
Location:  44.4236°N, 115.8°W
Report Text: KMYL 212351Z AUTO 16011KT 9SM -SN FEW020 OVC037 02/00 A2985 RMK AO2 SNB34 SLP126 P0000 60001 T00170000 10017 21017 56019
Loading
Personal Weather Stations






























Interactive Weather Map New forecast layout! Learn more

10-Day Weather Forecast

Advertisements
Track Severe Weather on mobile